sensor_id;sensor_type;location;lat;lon;timestamp;pressure;altitude;pressure_sealevel;temperature;humidity
76331;BME280;65148;51.912;15.570;2023-04-08T00:02:31;101784.34;;;8.00;100.00
76331;BME280;65148;51.912;15.570;2023-04-08T00:17:32;101789.84;;;8.05;100.00
76331;BME280;65148;51.912;15.570;2023-04-08T00:32:55;101798.09;;;8.10;100.00
76331;BME280;65148;51.912;15.570;2023-04-08T00:47:58;101802.22;;;8.29;100.00
76331;BME280;65148;51.912;15.570;2023-04-08T01:03:12;101813.69;;;8.48;100.00
76331;BME280;65148;51.912;15.570;2023-04-08T01:18:39;101821.89;;;8.36;100.00
76331;BME280;65148;51.912;15.570;2023-04-08T01:33:42;101830.79;;;8.49;100.00
76331;BME280;65148;51.912;15.570;2023-04-08T01:48:44;101837.20;;;8.43;100.00
76331;BME280;65148;51.912;15.570;2023-04-08T02:03:46;101847.48;;;8.40;100.00
76331;BME280;65148;51.912;15.570;2023-04-08T02:34:19;101869.95;;;8.53;100.00
76331;BME280;65148;51.912;15.570;2023-04-08T02:49:22;101900.81;;;8.35;100.00
76331;BME280;65148;51.912;15.570;2023-04-08T03:04:47;101913.18;;;8.02;100.00
76331;BME280;65148;51.912;15.570;2023-04-08T03:19:48;101930.08;;;7.81;100.00
76331;BME280;65148;51.912;15.570;2023-04-08T03:34:50;101945.89;;;7.73;100.00
76331;BME280;65148;51.912;15.570;2023-04-08T03:49:52;101968.41;;;7.61;100.00
76331;BME280;65148;51.912;15.570;2023-04-08T04:05:13;101971.02;;;7.33;100.00
76331;BME280;65148;51.912;15.570;2023-04-08T04:20:14;101990.41;;;7.18;100.00
76331;BME280;65148;51.912;15.570;2023-04-08T04:35:15;102018.72;;;6.92;100.00
76331;BME280;65148;51.912;15.570;2023-04-08T04:50:17;102027.36;;;7.01;100.00
76331;BME280;65148;51.912;15.570;2023-04-08T05:05:40;102041.37;;;6.68;100.00
76331;BME280;65148;51.912;15.570;2023-04-08T05:20:41;102056.62;;;6.92;100.00
76331;BME280;65148;51.912;15.570;2023-04-08T05:35:42;102090.58;;;6.77;100.00
76331;BME280;65148;51.912;15.570;2023-04-08T05:50:43;102115.02;;;6.52;100.00
76331;BME280;65148;51.912;15.570;2023-04-08T06:06:10;102124.63;;;6.30;100.00
76331;BME280;65148;51.912;15.570;2023-04-08T06:21:11;102147.46;;;6.15;100.00
76331;BME280;65148;51.912;15.570;2023-04-08T06:36:12;102161.01;;;6.34;100.00
76331;BME280;65148;51.912;15.570;2023-04-08T06:51:14;102178.51;;;6.49;100.00
76331;BME280;65148;51.912;15.570;2023-04-08T07:06:33;102189.27;;;6.56;100.00
76331;BME280;65148;51.912;15.570;2023-04-08T07:21:35;102215.59;;;6.49;100.00
76331;BME280;65148;51.912;15.570;2023-04-08T07:36:36;102231.64;;;6.44;100.00
76331;BME280;65148;51.912;15.570;2023-04-08T07:51:39;102254.65;;;6.28;100.00
76331;BME280;65148;51.912;15.570;2023-04-08T08:07:00;102272.27;;;5.74;100.00
76331;BME280;65148;51.912;15.570;2023-04-08T08:22:01;102303.34;;;5.97;100.00
76331;BME280;65148;51.912;15.570;2023-04-08T08:37:02;102302.01;;;6.12;100.00
76331;BME280;65148;51.912;15.570;2023-04-08T08:52:03;102319.62;;;5.90;100.00
76331;BME280;65148;51.912;15.570;2023-04-08T09:07:29;102338.01;;;6.06;100.00
76331;BME280;65148;51.912;15.570;2023-04-08T09:22:30;102355.59;;;6.53;100.00
76331;BME280;65148;51.912;15.570;2023-04-08T09:37:31;102367.02;;;6.55;100.00
76331;BME280;65148;51.912;15.570;2023-04-08T10:07:58;102384.04;;;6.87;96.23
76331;BME280;65148;51.912;15.570;2023-04-08T10:23:00;102398.40;;;7.13;95.64
76331;BME280;65148;51.912;15.570;2023-04-08T10:38:02;102401.76;;;7.08;92.36
76331;BME280;65148;51.912;15.570;2023-04-08T10:53:04;102405.05;;;7.35;93.76
76331;BME280;65148;51.912;15.570;2023-04-08T11:08:31;102424.55;;;7.44;92.91
76331;BME280;65148;51.912;15.570;2023-04-08T11:23:32;102405.51;;;7.87;92.30
76331;BME280;65148;51.912;15.570;2023-04-08T11:38:38;102426.49;;;7.91;88.93
76331;BME280;65148;51.912;15.570;2023-04-08T11:54:24;102420.16;;;7.79;90.19
76331;BME280;65148;51.912;15.570;2023-04-08T12:09:18;102413.02;;;8.33;90.43
76331;BME280;65148;51.912;15.570;2023-04-08T12:24:19;102406.73;;;8.21;92.39
76331;BME280;65148;51.912;15.570;2023-04-08T12:43:01;102435.48;;;8.40;85.42
76331;BME280;65148;51.912;15.570;2023-04-08T12:58:03;102433.30;;;8.30;88.20
76331;BME280;65148;51.912;15.570;2023-04-08T13:13:06;102428.60;;;8.67;86.98
76331;BME280;65148;51.912;15.570;2023-04-08T13:28:28;102430.95;;;8.52;84.16
76331;BME280;65148;51.912;15.570;2023-04-08T13:43:29;102420.13;;;8.87;86.16
76331;BME280;65148;51.912;15.570;2023-04-08T13:58:31;102431.02;;;9.69;82.53
76331;BME280;65148;51.912;15.570;2023-04-08T14:13:32;102423.65;;;9.93;82.49
76331;BME280;65148;51.912;15.570;2023-04-08T14:28:54;102418.52;;;9.44;75.15
76331;BME280;65148;51.912;15.570;2023-04-08T14:43:55;102417.63;;;9.79;75.70
76331;BME280;65148;51.912;15.570;2023-04-08T14:58:58;102409.50;;;11.14;69.73
76331;BME280;65148;51.912;15.570;2023-04-08T15:13:59;102410.87;;;10.50;70.20
76331;BME280;65148;51.912;15.570;2023-04-08T15:29:21;102410.52;;;10.91;69.61
76331;BME280;65148;51.912;15.570;2023-04-08T15:44:23;102414.00;;;11.42;66.41
76331;BME280;65148;51.912;15.570;2023-04-08T15:59:28;102414.60;;;11.27;65.52
76331;BME280;65148;51.912;15.570;2023-04-08T16:14:30;102428.48;;;11.26;66.10
76331;BME280;65148;51.912;15.570;2023-04-08T16:29:47;102437.02;;;10.96;67.51
76331;BME280;65148;51.912;15.570;2023-04-08T16:44:54;102453.13;;;10.52;68.50
76331;BME280;65148;51.912;15.570;2023-04-08T16:59:56;102455.66;;;10.02;71.52
76331;BME280;65148;51.912;15.570;2023-04-08T17:14:57;102459.05;;;9.46;74.17
76331;BME280;65148;51.912;15.570;2023-04-08T17:30:14;102466.87;;;8.77;78.52
76331;BME280;65148;51.912;15.570;2023-04-08T17:45:15;102481.64;;;8.22;80.50
76331;BME280;65148;51.912;15.570;2023-04-08T18:00:16;102489.36;;;7.45;84.38
76331;BME280;65148;51.912;15.570;2023-04-08T18:15:17;102500.87;;;6.84;86.98
76331;BME280;65148;51.912;15.570;2023-04-08T18:30:43;102514.27;;;6.35;88.27
76331;BME280;65148;51.912;15.570;2023-04-08T18:45:44;102520.64;;;5.96;89.49
76331;BME280;65148;51.912;15.570;2023-04-08T19:00:45;102526.28;;;5.55;90.35
76331;BME280;65148;51.912;15.570;2023-04-08T19:15:46;102533.38;;;5.16;91.25
76331;BME280;65148;51.912;15.570;2023-04-08T19:31:15;102518.32;;;4.67;93.05
76331;BME280;65148;51.912;15.570;2023-04-08T19:46:17;102527.59;;;4.38;94.51
76331;BME280;65148;51.912;15.570;2023-04-08T20:01:19;102543.48;;;4.20;97.42
76331;BME280;65148;51.912;15.570;2023-04-08T20:16:20;102557.85;;;3.65;100.00
76331;BME280;65148;51.912;15.570;2023-04-08T20:45:09;102547.66;;;3.33;100.00
76331;BME280;65148;51.912;15.570;2023-04-08T21:00:11;102545.48;;;3.21;100.00
76331;BME280;65148;51.912;15.570;2023-04-08T21:15:16;102538.82;;;2.96;100.00
76331;BME280;65148;51.912;15.570;2023-04-08T21:30:40;102548.27;;;2.71;100.00
76331;BME280;65148;51.912;15.570;2023-04-08T21:45:42;102548.50;;;2.90;100.00
76331;BME280;65148;51.912;15.570;2023-04-08T22:00:42;102549.66;;;3.24;100.00
76331;BME280;65148;51.912;15.570;2023-04-08T22:15:45;102535.59;;;3.28;100.00
76331;BME280;65148;51.912;15.570;2023-04-08T22:31:10;102528.77;;;3.54;100.00
76331;BME280;65148;51.912;15.570;2023-04-08T22:46:11;102529.05;;;4.41;100.00
76331;BME280;65148;51.912;15.570;2023-04-08T23:01:15;102534.12;;;4.70;100.00
76331;BME280;65148;51.912;15.570;2023-04-08T23:16:16;102548.91;;;4.94;100.00
76331;BME280;65148;51.912;15.570;2023-04-08T23:31:36;102547.01;;;4.75;100.00
76331;BME280;65148;51.912;15.570;2023-04-08T23:46:37;102552.99;;;4.64;100.00
